Time;durP1;ratioP1;P1;durP2;ratioP2;P2;SDS_P1;SDS_P2;PMS_P1;PMS_P2;Temp;Humidity;BMP_temperature;BMP_pressure;BME280_temperature;BME280_humidity;BME280_pressure;Samples;Min_cycle;Max_cycle;Signal;HPM_P1;HPM_P2
2022/05/02 00:02:05;;;;;;;10.15;6.13;;;;;;;8.40;90.08;99972.94;4961011;28;20145;-48
2022/05/02 00:04:50;;;;;;;9.98;5.78;;;;;;;8.40;89.79;99968.59;4960383;28;20055;-48
2022/05/02 00:07:35;;;;;;;10.18;5.07;;;;;;;8.44;89.10;99972.00;4960424;28;20047;-48
2022/05/02 00:10:19;;;;;;;8.35;4.65;;;;;;;8.45;89.87;99965.03;4959395;28;20502;-48
2022/05/02 00:13:06;;;;;;;11.07;5.60;;;;;;;8.47;88.05;99971.09;4960544;28;20058;-48
2022/05/02 00:15:51;;;;;;;8.73;5.45;;;;;;;8.22;87.71;99968.78;4959462;28;20081;-48
2022/05/02 00:18:35;;;;;;;13.75;7.43;;;;;;;8.17;85.80;99966.25;4960396;28;20677;-48
2022/05/02 00:21:20;;;;;;;10.57;7.07;;;;;;;8.14;84.83;99965.41;4959601;28;20196;-48
2022/05/02 00:24:05;;;;;;;13.90;7.72;;;;;;;8.28;83.56;99965.22;4960138;28;20054;-48
2022/05/02 00:26:49;;;;;;;10.32;6.03;;;;;;;8.31;83.22;99966.06;4968089;28;20059;-48
2022/05/02 00:29:34;;;;;;;15.45;5.93;;;;;;;8.13;84.95;99968.94;4972572;28;20051;-48
2022/05/02 00:32:19;;;;;;;13.00;6.00;;;;;;;8.18;84.36;99967.97;4960636;28;20091;-48
2022/05/02 00:35:05;;;;;;;12.73;7.03;;;;;;;8.12;85.35;99967.19;4960610;28;20054;-48
2022/05/02 00:37:49;;;;;;;17.45;8.40;;;;;;;8.22;83.89;99966.16;4960279;28;20054;-47
2022/05/02 00:40:34;;;;;;;15.07;7.95;;;;;;;8.31;82.05;99971.28;4959846;28;20070;-48
2022/05/02 00:43:18;;;;;;;16.63;8.40;;;;;;;8.19;84.75;99966.25;4960230;28;20082;-48
2022/05/02 00:46:16;;;;;;;17.60;10.05;;;;;;;7.96;87.08;99966.50;4960417;28;20074;-47
2022/05/02 00:49:00;;;;;;;11.60;7.72;;;;;;;8.09;84.81;99964.59;4959598;28;20042;-47
2022/05/02 00:51:45;;;;;;;13.85;7.53;;;;;;;8.14;83.82;99963.66;4959805;28;20051;-48
2022/05/02 00:54:29;;;;;;;12.60;6.63;;;;;;;8.02;84.44;99966.44;4959728;28;20055;-48
2022/05/02 00:57:16;;;;;;;10.73;5.80;;;;;;;8.03;85.07;99962.09;4960340;28;20393;-48
2022/05/02 01:00:01;;;;;;;10.30;5.95;;;;;;;8.03;84.45;99968.19;4959912;28;20106;-48
2022/05/02 01:02:46;;;;;;;9.85;6.35;;;;;;;7.89;85.52;99954.41;4959994;28;20047;-48
2022/05/02 01:05:31;;;;;;;14.73;7.60;;;;;;;7.90;85.22;99958.78;4959711;28;20411;-48
2022/05/02 01:08:15;;;;;;;11.80;6.63;;;;;;;7.91;85.29;99957.88;4959678;28;20105;-48
2022/05/02 01:11:00;;;;;;;10.25;6.25;;;;;;;7.92;84.80;99955.25;4959130;28;20089;-48
2022/05/02 01:13:47;;;;;;;14.20;7.20;;;;;;;7.87;85.19;99950.97;4959022;28;20046;-48
2022/05/02 01:16:31;;;;;;;13.70;7.50;;;;;;;7.80;85.53;99954.50;4958234;28;20070;-48
2022/05/02 01:19:16;;;;;;;13.10;6.78;;;;;;;7.70;86.41;99953.75;4959559;28;20089;-48
2022/05/02 01:22:01;;;;;;;12.02;7.25;;;;;;;7.67;85.67;99954.69;4959237;28;20463;-48
2022/05/02 01:24:47;;;;;;;20.17;7.70;;;;;;;7.64;85.53;99957.31;4958836;28;20054;-48
2022/05/02 01:27:32;;;;;;;13.13;7.43;;;;;;;7.47;88.98;99952.28;4959830;28;20058;-48
2022/05/02 01:30:16;;;;;;;13.23;7.45;;;;;;;7.55;86.84;99961.75;4958591;28;20367;-48
2022/05/02 01:33:01;;;;;;;15.20;7.15;;;;;;;7.54;86.70;99955.69;4972431;28;20055;-48
2022/05/02 01:35:45;;;;;;;13.32;6.55;;;;;;;7.54;85.08;99955.69;4959503;28;20077;-48
2022/05/02 01:38:30;;;;;;;10.68;5.95;;;;;;;7.56;83.55;99950.44;4959510;28;20108;-48
2022/05/02 01:41:15;;;;;;;10.68;6.55;;;;;;;7.58;82.92;99951.31;4958848;28;20055;-48
2022/05/02 01:43:59;;;;;;;10.85;6.30;;;;;;;7.63;82.10;99939.06;4958968;28;20109;-48
2022/05/02 01:46:44;;;;;;;9.70;5.47;;;;;;;7.69;81.34;99945.06;4959127;28;20424;-48
2022/05/02 01:49:28;;;;;;;11.15;5.75;;;;;;;7.70;82.21;99948.53;4959322;28;20512;-48
2022/05/02 01:52:13;;;;;;;10.43;6.22;;;;;;;7.73;82.50;99948.50;4958575;28;20054;-48
2022/05/02 01:54:57;;;;;;;11.82;6.07;;;;;;;7.73;82.41;99940.69;4959320;28;20058;-48
2022/05/02 01:57:42;;;;;;;10.27;5.40;;;;;;;7.74;82.06;99947.66;4959102;28;20856;-48
2022/05/02 02:00:26;;;;;;;10.20;5.82;;;;;;;7.72;82.18;99945.03;4958656;28;20051;-48
2022/05/02 02:03:11;;;;;;;12.25;6.30;;;;;;;7.73;83.61;99951.13;4958933;28;20066;-48
2022/05/02 02:05:55;;;;;;;11.10;6.68;;;;;;;7.50;89.52;99947.00;4958827;28;20121;-48
2022/05/02 02:08:42;;;;;;;13.30;6.95;;;;;;;7.55;88.17;99939.16;4971862;28;20066;-48
2022/05/02 02:11:27;;;;;;;11.65;6.20;;;;;;;7.68;85.48;99937.28;4958484;28;20050;-47
2022/05/02 02:14:11;;;;;;;12.75;6.35;;;;;;;7.72;85.59;99938.97;4958362;28;20042;-47
2022/05/02 02:16:56;;;;;;;12.98;6.90;;;;;;;7.69;86.87;99944.22;4958634;28;20062;-48
2022/05/02 02:19:40;;;;;;;11.68;6.93;;;;;;;7.71;86.08;99943.31;4958218;28;20073;-48
2022/05/02 02:22:26;;;;;;;15.93;7.40;;;;;;;7.73;86.80;99940.69;4958206;28;20046;-48
2022/05/02 02:25:10;;;;;;;12.75;7.10;;;;;;;7.73;86.81;99933.75;4958955;28;21872;-48
2022/05/02 02:27:55;;;;;;;17.15;8.15;;;;;;;7.71;87.03;99935.50;4958857;28;20051;-47
2022/05/02 02:30:40;;;;;;;16.48;8.55;;;;;;;7.69;87.64;99932.03;4958079;28;20051;-48
2022/05/02 02:33:24;;;;;;;20.63;9.10;;;;;;;7.61;90.69;99930.41;4959428;28;20154;-47
2022/05/02 02:36:09;;;;;;;19.00;9.80;;;;;;;7.65;90.13;99930.34;4958120;28;20062;-48
2022/05/02 02:38:53;;;;;;;17.75;9.40;;;;;;;7.68;89.33;99932.06;4958009;28;20050;-48
2022/05/02 02:41:38;;;;;;;16.27;8.80;;;;;;;7.64;90.02;99935.59;4958141;28;20050;-48
2022/05/02 02:44:22;;;;;;;18.00;9.27;;;;;;;7.64;90.22;99928.63;4958478;28;20051;-47
2022/05/02 02:47:07;;;;;;;17.70;9.65;;;;;;;7.62;89.89;99930.38;4957636;28;20058;-47
2022/05/02 02:49:51;;;;;;;17.77;9.35;;;;;;;7.62;89.41;99930.38;4958835;28;20068;-48
2022/05/02 02:52:36;;;;;;;20.02;10.25;;;;;;;7.55;90.16;99933.94;4957728;28;20096;-47
2022/05/02 02:55:20;;;;;;;16.80;9.80;;;;;;;7.53;90.02;99933.09;4958205;28;20078;-48
2022/05/02 02:58:05;;;;;;;18.63;9.88;;;;;;;7.51;89.02;99927.03;4958256;28;20055;-48
2022/05/02 03:00:49;;;;;;;19.83;9.82;;;;;;;7.47;90.79;99934.03;4958172;28;20050;-48
2022/05/02 03:03:34;;;;;;;19.02;10.43;;;;;;;7.44;92.69;99928.84;4958146;28;20062;-48
2022/05/02 03:06:18;;;;;;;135.27;57.30;;;;;;;7.50;91.72;99933.13;4957429;28;20469;-48
2022/05/02 03:09:03;;;;;;;49.35;24.73;;;;;;;7.45;93.04;99933.19;4957518;28;20108;-47
2022/05/02 03:11:47;;;;;;;25.48;14.27;;;;;;;7.41;93.77;99933.22;4957614;28;20043;-48
2022/05/02 03:14:32;;;;;;;28.98;12.77;;;;;;;7.50;91.13;99930.50;4957650;28;20062;-48
2022/05/02 03:17:16;;;;;;;20.42;11.80;;;;;;;7.38;93.46;99928.06;4957694;28;20055;-48
2022/05/02 03:20:01;;;;;;;27.42;14.43;;;;;;;7.50;90.87;99936.59;4957765;28;20066;-48
2022/05/02 03:22:45;;;;;;;23.30;13.85;;;;;;;7.54;90.08;99927.03;4956545;28;20047;-48
2022/05/02 03:25:30;;;;;;;34.28;19.63;;;;;;;7.65;88.85;99945.13;4955904;28;20085;-47
2022/05/02 03:28:15;;;;;;;27.02;16.10;;;;;;;7.63;89.04;99939.94;4956650;28;20051;-48
2022/05/02 03:31:00;;;;;;;25.45;15.43;;;;;;;7.63;87.77;99941.69;4958963;28;20047;-47
2022/05/02 03:33:44;;;;;;;29.50;15.98;;;;;;;7.75;86.81;99946.75;4959857;28;20046;-48
2022/05/02 03:36:29;;;;;;;27.13;14.50;;;;;;;7.87;86.67;99930.97;4959775;28;20043;-48
2022/05/02 03:39:13;;;;;;;25.17;13.88;;;;;;;7.89;86.90;99937.03;4958632;28;20146;-48
2022/05/02 03:41:58;;;;;;;23.85;14.82;;;;;;;8.00;86.61;99931.69;4958601;28;20059;-47
2022/05/02 03:44:42;;;;;;;22.08;13.85;;;;;;;7.90;89.21;99932.69;4959013;28;20059;-48
2022/05/02 03:47:27;;;;;;;23.42;14.40;;;;;;;8.04;87.79;99927.28;4958679;28;20054;-48
2022/05/02 03:50:11;;;;;;;23.10;12.38;;;;;;;8.18;85.85;99934.03;4959764;28;20051;-48
2022/05/02 03:52:57;;;;;;;26.35;12.98;;;;;;;8.22;86.43;99940.06;4958345;28;20055;-48
2022/05/02 03:55:42;;;;;;;20.88;11.35;;;;;;;8.26;86.13;99940.94;4958848;28;20201;-48
2022/05/02 03:58:27;;;;;;;21.90;11.55;;;;;;;8.29;86.77;99931.31;4959861;28;20120;-48
2022/05/02 04:01:12;;;;;;;24.45;12.20;;;;;;;8.27;88.15;99937.44;4959646;28;20050;-48
2022/05/02 04:03:57;;;;;;;23.50;12.43;;;;;;;8.30;87.63;99938.25;4959193;28;20652;-47
2022/05/02 04:06:42;;;;;;;25.52;12.77;;;;;;;8.27;88.72;99935.66;4959838;28;20141;-47
2022/05/02 04:09:26;;;;;;;19.17;12.27;;;;;;;8.35;89.01;99932.94;4956968;28;20576;-48
2022/05/02 04:12:11;;;;;;;19.88;11.20;;;;;;;8.45;88.17;99933.72;4956989;28;20058;-48
2022/05/02 04:14:56;;;;;;;21.45;12.35;;;;;;;8.54;87.68;99936.19;4957052;28;20057;-48
2022/05/02 04:17:40;;;;;;;23.42;12.80;;;;;;;8.58;87.89;99936.16;4956038;28;20778;-48
2022/05/02 04:20:25;;;;;;;23.65;12.93;;;;;;;8.66;87.34;99933.41;4956368;28;20889;-48
2022/05/02 04:23:10;;;;;;;23.25;13.52;;;;;;;8.71;87.32;99935.94;4955591;28;20054;-48
2022/05/02 04:25:55;;;;;;;22.23;12.82;;;;;;;8.78;86.92;99932.38;4955865;28;20493;-49
2022/05/02 04:28:39;;;;;;;21.92;13.10;;;;;;;8.87;87.13;99947.88;4954264;28;20417;-48
2022/05/02 04:31:24;;;;;;;32.75;17.15;;;;;;;8.75;88.58;99941.09;4953417;28;20047;-48
2022/05/02 04:34:08;;;;;;;27.25;14.82;;;;;;;8.87;87.48;99953.97;4953808;28;20047;-48
2022/05/02 04:36:52;;;;;;;25.27;14.90;;;;;;;9.04;86.73;99939.78;4953785;28;20049;-48
2022/05/02 04:39:36;;;;;;;25.13;12.95;;;;;;;9.09;86.44;99957.09;4952638;28;20062;-48
2022/05/02 04:42:21;;;;;;;25.98;14.45;;;;;;;9.11;86.51;99951.84;4953852;28;20050;-48
2022/05/02 04:45:06;;;;;;;24.58;14.82;;;;;;;9.05;85.69;99957.16;4953903;28;20051;-48
2022/05/02 04:47:50;;;;;;;23.83;13.50;;;;;;;9.08;84.62;99957.13;4954005;28;20116;-49
2022/05/02 04:50:35;;;;;;;22.40;12.85;;;;;;;9.21;83.60;99952.56;4957008;28;20059;-49
2022/05/02 04:53:20;;;;;;;25.65;13.23;;;;;;;9.30;83.13;99960.25;4958832;28;20051;-48
2022/05/02 04:56:04;;;;;;;22.63;13.57;;;;;;;9.32;82.09;99959.31;4959467;28;20081;-48
2022/05/02 04:58:49;;;;;;;21.90;13.70;;;;;;;9.56;81.08;99954.53;4956926;28;20047;-49
2022/05/02 05:01:34;;;;;;;26.35;13.93;;;;;;;9.55;80.96;99956.31;4952792;28;20050;-49
2022/05/02 05:04:18;;;;;;;21.27;11.90;;;;;;;9.80;80.21;99971.50;4953483;28;20055;-49
2022/05/02 05:07:02;;;;;;;19.02;12.05;;;;;;;9.95;80.06;99962.53;4953013;28;20058;-49
2022/05/02 05:09:47;;;;;;;19.30;11.18;;;;;;;10.12;79.57;99962.16;4952413;28;20096;-49
2022/05/02 05:12:50;;;;;;;20.42;11.98;;;;;;;10.23;79.85;99966.25;4952458;28;20116;-48
2022/05/02 05:16:20;;;;;;;22.90;13.27;;;;;;;10.49;78.87;99963.13;4952167;28;20523;-49
2022/05/02 05:19:24;;;;;;;21.38;12.13;;;;;;;11.63;76.07;99958.59;4952000;28;20478;-48
2022/05/02 05:22:37;;;;;;;17.45;12.10;;;;;;;12.63;70.23;99953.94;4953465;28;20059;-49
2022/05/02 05:25:48;;;;;;;24.10;12.63;;;;;;;13.35;66.02;99950.75;4938591;28;20050;-48
2022/05/02 05:28:36;;;;;;;17.55;11.70;;;;;;;13.78;63.04;99941.41;4966709;28;20050;-49
2022/05/02 05:31:35;;;;;;;18.35;11.75;;;;;;;14.27;59.53;99942.19;4953447;28;20039;-49
2022/05/02 05:34:44;;;;;;;17.58;11.52;;;;;;;14.76;57.55;99944.75;4952923;28;20514;-48
2022/05/02 05:38:06;;;;;;;19.10;11.68;;;;;;;15.04;57.94;99941.81;4948690;28;20047;-48
2022/05/02 05:41:02;;;;;;;21.13;11.82;;;;;;;16.07;56.47;99936.47;4953812;28;20454;-49
2022/05/02 05:44:01;;;;;;;18.38;12.02;;;;;;;16.27;54.34;99938.19;4953340;28;20050;-49
2022/05/02 05:47:01;;;;;;;17.42;12.40;;;;;;;16.18;53.35;99929.84;4952938;28;20478;-49
2022/05/02 05:50:05;;;;;;;24.65;13.85;;;;;;;16.12;52.00;99937.13;4952978;28;20046;-49
2022/05/02 05:53:25;;;;;;;21.88;10.88;;;;;;;16.43;51.87;99934.84;4952877;28;20051;-49
2022/05/02 05:56:35;;;;;;;20.38;11.23;;;;;;;16.09;51.77;99931.13;4952732;28;20074;-50
2022/05/02 06:00:00;;;;;;;13.85;10.32;;;;;;;16.81;51.03;99933.91;4946773;28;20058;-50
2022/05/02 06:03:12;;;;;;;19.52;12.95;;;;;;;15.94;50.30;99929.19;4953346;28;20058;-49
2022/05/02 06:05:57;;;;;;;17.25;12.20;;;;;;;16.37;50.21;99935.97;4950230;28;20058;-50
2022/05/02 06:08:45;;;;;;;16.92;11.05;;;;;;;16.58;49.93;99928.84;4950225;28;21121;-49
2022/05/02 06:11:29;;;;;;;15.13;10.50;;;;;;;17.55;49.74;99930.22;4956099;28;20054;-49
2022/05/02 06:14:15;;;;;;;17.27;12.15;;;;;;;17.75;48.50;99924.72;4955874;28;20097;-50
2022/05/02 06:20:05;;;;;;;15.52;10.35;;;;;;;19.09;47.23;99930.63;4956305;28;20820;-51
2022/05/02 06:22:50;;;;;;;16.80;10.88;;;;;;;19.45;46.74;99922.28;4953809;28;20043;-50
2022/05/02 06:25:37;;;;;;;17.38;10.23;;;;;;;19.44;45.33;99925.03;4944553;28;20788;-49
2022/05/02 06:28:24;;;;;;;14.20;10.00;;;;;;;19.68;45.85;99926.22;4956473;28;20429;-50
2022/05/02 06:31:29;;;;;;;15.75;10.07;;;;;;;19.31;43.97;99932.88;4953222;28;20047;-50
2022/05/02 06:34:18;;;;;;;13.18;10.23;;;;;;;20.44;44.67;99930.38;4949826;28;20042;-51
2022/05/02 06:37:08;;;;;;;23.60;12.68;;;;;;;20.31;43.29;99924.97;4956451;28;20055;-50
2022/05/02 06:40:08;;;;;;;21.00;13.02;;;;;;;19.51;44.99;99926.38;4952017;28;20051;-50
2022/05/02 06:42:53;;;;;;;18.55;11.55;;;;;;;19.77;45.15;99924.84;4952685;28;20042;-50
2022/05/02 06:45:56;;;;;;;19.75;12.57;;;;;;;19.69;42.94;99930.59;4954837;28;20475;-51
2022/05/02 06:48:53;;;;;;;;;;;;;;;20.22;42.39;99925.59;4956841;28;20058;-50
2022/05/02 06:51:40;;;;;;;16.88;10.57;;;;;;;20.65;42.14;99936.16;4957080;28;20141;-51
2022/05/02 06:54:43;;;;;;;18.85;11.70;;;;;;;20.64;41.81;99935.31;4953190;28;20055;-50
2022/05/02 06:58:06;;;;;;;15.07;11.30;;;;;;;21.11;41.90;99934.00;4960784;28;20079;-50
2022/05/02 07:01:00;;;;;;;17.98;11.60;;;;;;;20.87;41.54;99927.66;4957156;28;20446;-50
2022/05/02 07:04:04;;;;;;;16.63;12.35;;;;;;;20.40;41.91;99937.69;4959262;28;20059;-50
2022/05/02 07:07:03;;;;;;;15.57;10.80;;;;;;;20.60;41.21;99938.25;4960183;28;21404;-49
2022/05/02 07:10:11;;;;;;;17.40;12.88;;;;;;;19.50;42.03;99936.16;4960401;28;20062;-49
2022/05/02 07:13:26;;;;;;;15.63;11.82;;;;;;;20.22;41.53;99939.72;4961300;28;20070;-49
2022/05/02 07:16:24;;;;;;;14.05;10.43;;;;;;;20.92;40.91;99941.47;4960532;28;20136;-49
2022/05/02 07:19:13;;;;;;;14.68;10.40;;;;;;;21.00;41.17;99941.84;4959328;28;20127;-49
2022/05/02 07:22:02;;;;;;;20.70;12.40;;;;;;;20.01;41.50;99944.56;4959900;28;20292;-50
2022/05/02 07:24:56;;;;;;;14.38;10.88;;;;;;;21.50;39.63;99939.44;4959301;28;20058;-50
2022/05/02 07:28:08;;;;;;;13.15;9.60;;;;;;;22.22;39.77;99945.09;4960901;28;20058;-50
2022/05/02 07:30:57;;;;;;;16.13;10.30;;;;;;;22.22;38.18;99937.09;4953947;28;20051;-51
2022/05/02 07:33:44;;;;;;;13.40;10.20;;;;;;;22.57;38.66;99939.91;4960423;28;20043;-50
2022/05/02 07:36:33;;;;;;;15.05;10.55;;;;;;;22.59;39.54;99949.50;4960266;28;20104;-51
2022/05/02 07:39:22;;;;;;;23.00;12.25;;;;;;;22.20;38.02;99947.88;4939872;28;20435;-50
2022/05/02 07:42:08;;;;;;;13.75;9.52;;;;;;;23.48;38.08;99936.69;4961773;28;20054;-51
2022/05/02 07:44:55;;;;;;;14.00;10.50;;;;;;;23.62;38.34;99939.13;4959120;28;20047;-50
2022/05/02 07:47:43;;;;;;;15.10;10.32;;;;;;;23.29;37.63;99938.06;4957303;28;20042;-51
2022/05/02 07:50:29;;;;;;;15.80;10.02;;;;;;;23.20;36.96;99938.78;4959867;28;20093;-52
2022/05/02 07:53:14;;;;;;;19.10;10.23;;;;;;;23.43;36.90;99949.53;4960051;28;20055;-51
2022/05/02 07:56:01;;;;;;;14.35;9.98;;;;;;;23.96;36.79;99937.41;4959025;28;20050;-51
2022/05/02 07:58:47;;;;;;;17.00;9.38;;;;;;;23.61;34.64;99937.44;4972943;28;20043;-52
2022/05/02 08:01:33;;;;;;;12.02;8.98;;;;;;;23.50;34.67;99940.94;4959587;28;20058;-52
2022/05/02 08:04:18;;;;;;;11.23;8.80;;;;;;;24.22;34.94;99943.38;4959192;28;20359;-51
2022/05/02 08:07:11;;;;;;;15.07;10.23;;;;;;;22.60;31.37;99939.66;4959460;28;20055;-52
2022/05/02 08:10:33;;;;;;;14.88;8.70;;;;;;;23.68;32.04;99935.16;4971632;28;20134;-52
2022/05/02 08:13:31;;;;;;;14.35;10.27;;;;;;;23.37;33.67;99933.97;4959855;28;20047;-53
2022/05/02 08:16:24;;;;;;;14.10;9.25;;;;;;;21.97;34.58;99930.81;4957965;28;20053;-53
2022/05/02 08:19:27;;;;;;;12.05;7.57;;;;;;;22.85;33.40;99933.38;4958656;28;20050;-51
2022/05/02 08:29:05;;;;;;;10.90;6.80;;;;;;;23.31;33.58;99930.81;4957777;28;20043;-51
2022/05/02 08:32:32;;;;;;;9.73;6.72;;;;;;;22.92;33.57;99933.78;4960415;28;20035;-51
2022/05/02 08:35:23;;;;;;;9.35;6.22;;;;;;;23.29;33.51;99930.06;4971442;28;20066;-51
2022/05/02 08:38:57;;;;;;;10.98;6.63;;;;;;;23.54;33.29;99922.84;4958146;28;20055;-52
2022/05/02 08:41:56;;;;;;;9.32;6.55;;;;;;;23.12;34.00;99922.47;4955429;28;20046;-51
2022/05/02 08:45:18;;;;;;;10.98;6.32;;;;;;;23.51;32.86;99915.06;4957994;28;20082;-52
2022/05/02 08:48:21;;;;;;;9.00;7.00;;;;;;;23.14;34.05;99920.56;4958174;28;20046;-51
2022/05/02 08:51:25;;;;;;;12.75;7.78;;;;;;;23.27;34.69;99915.16;4959784;28;20051;-51
2022/05/02 08:54:31;;;;;;;8.60;6.68;;;;;;;23.24;33.97;99910.88;4955888;28;20054;-51
2022/05/02 08:57:48;;;;;;;9.10;6.88;;;;;;;22.79;33.54;99916.00;4956924;28;20055;-51
2022/05/02 09:00:44;;;;;;;10.38;6.50;;;;;;;23.62;34.30;99901.72;4955343;28;20050;-51
2022/05/02 09:03:41;;;;;;;9.98;6.47;;;;;;;23.50;33.87;99911.56;4957923;28;20501;-51
2022/05/02 09:07:09;;;;;;;8.30;7.00;;;;;;;22.62;33.90;99906.56;4957252;28;20046;-51
2022/05/02 09:10:15;;;;;;;11.90;7.30;;;;;;;23.38;33.17;99900.94;4976976;28;20116;-52
2022/05/02 09:13:17;;;;;;;14.27;7.07;;;;;;;23.44;33.73;99903.16;4958659;28;21017;-51
2022/05/02 09:16:32;;;;;;;9.40;6.75;;;;;;;23.13;34.43;99905.47;4955691;28;20063;-51
2022/05/02 09:19:36;;;;;;;11.02;6.03;;;;;;;23.49;32.28;99900.97;4955865;28;20050;-53
2022/05/02 09:22:57;;;;;;;12.27;6.07;;;;;;;23.41;30.68;99895.38;4958150;28;20790;-52
2022/05/02 09:25:50;;;;;;;8.85;5.50;;;;;;;23.43;30.86;99893.41;4956201;28;20346;-52
2022/05/02 09:28:38;;;;;;;6.80;3.97;;;;;;;24.10;29.82;99895.34;4957829;28;20059;-52
2022/05/02 09:31:22;;;;;;;5.68;4.28;;;;;;;24.51;29.65;99888.50;4957572;28;20035;-51
2022/05/02 09:34:18;;;;;;;9.63;4.32;;;;;;;24.08;27.55;99881.22;4953445;28;20100;-51
2022/05/02 09:37:05;;;;;;;6.68;3.85;;;;;;;24.38;28.92;99888.63;4953023;28;20058;-51
2022/05/02 09:40:04;;;;;;;6.20;3.88;;;;;;;24.70;28.13;99888.69;4956842;28;20046;-52
2022/05/02 09:43:25;;;;;;;6.68;3.53;;;;;;;24.68;27.25;99875.41;4957448;28;20042;-50
2022/05/02 09:49:45;;;;;;;5.10;3.35;;;;;;;24.80;26.94;99875.38;4956729;28;20043;-50
2022/05/02 09:53:02;;;;;;;5.35;3.33;;;;;;;24.66;26.43;99880.03;4957548;28;20158;-51
2022/05/02 09:59:28;;;;;;;5.43;3.08;;;;;;;23.85;27.42;99875.03;4956136;28;20046;-50
2022/05/02 10:02:20;;;;;;;5.32;3.17;;;;;;;23.66;27.79;99872.91;4954545;28;20405;-50
2022/05/02 10:05:06;;;;;;;4.28;2.90;;;;;;;23.75;27.82;99867.72;4955971;28;20050;-50
2022/05/02 10:08:04;;;;;;;4.40;2.50;;;;;;;23.85;27.30;99869.69;4957153;28;20066;-50
2022/05/02 10:12:03;;;;;;;3.50;2.38;;;;;;;23.90;26.74;99870.19;4956652;28;20058;-50
2022/05/02 10:15:09;;;;;;;6.68;3.63;;;;;;;23.82;27.23;99861.91;4956419;28;20051;-51
2022/05/02 10:18:22;;;;;;;5.15;4.05;;;;;;;24.21;26.57;99860.53;4956551;28;20055;-51
2022/05/02 10:21:22;;;;;;;5.67;3.50;;;;;;;24.10;26.29;99855.22;4955614;28;20614;-50
2022/05/02 10:24:44;;;;;;;6.05;3.85;;;;;;;24.19;26.53;99849.97;4955475;28;20054;-51
2022/05/02 10:27:46;;;;;;;4.57;3.28;;;;;;;24.02;25.93;99855.84;4957000;28;20090;-51
2022/05/02 10:31:16;;;;;;;7.63;4.13;;;;;;;23.94;27.75;99840.38;4955820;28;20063;-51
2022/05/02 10:34:02;;;;;;;7.93;3.83;;;;;;;23.55;27.70;99845.22;4957416;28;20086;-51
2022/05/02 10:36:53;;;;;;;8.23;4.20;;;;;;;23.72;28.77;99835.91;4956530;28;21228;-51
2022/05/02 10:39:47;;;;;;;7.03;3.95;;;;;;;23.90;28.11;99835.41;4955981;28;20055;-51
2022/05/02 10:42:34;;;;;;;7.53;4.20;;;;;;;24.24;27.86;99834.41;4955554;28;20055;-51
2022/05/02 10:45:19;;;;;;;6.07;4.43;;;;;;;24.42;28.24;99828.53;4955166;28;20485;-51
2022/05/02 10:49:04;;;;;;;;;;;;;;;24.33;26.88;99823.91;4963262;28;20057;-51
2022/05/02 10:51:55;;;;;;;322.75;39.95;;;;;;;23.91;27.97;99824.56;4959082;28;19930;-51
2022/05/02 10:54:45;;;;;;;237.30;34.35;;;;;;;24.02;28.54;99826.41;4958613;28;20142;-52
2022/05/02 10:57:44;;;;;;;19.67;6.03;;;;;;;24.30;28.31;99821.47;4959294;28;20638;-52
2022/05/02 11:00:31;;;;;;;7.13;4.32;;;;;;;24.33;27.46;99822.06;4955737;28;20055;-51
2022/05/02 11:03:57;;;;;;;3.60;3.05;;;;;;;24.49;27.71;99819.00;4958777;28;20100;-51
2022/05/02 11:07:06;;;;;;;5.05;3.35;;;;;;;24.34;27.48;99812.22;4976616;28;20059;-51
2022/05/02 11:10:21;;;;;;;4.30;2.90;;;;;;;24.45;27.67;99814.91;4957442;28;20447;-50
2022/05/02 11:13:15;;;;;;;4.93;3.05;;;;;;;24.33;27.39;99810.53;4957022;28;20145;-50
2022/05/02 11:16:13;;;;;;;5.00;2.92;;;;;;;23.89;27.63;99804.31;4954278;28;20550;-50
2022/05/02 11:22:35;;;;;;;5.63;2.77;;;;;;;23.56;27.99;99809.50;4958774;28;20055;-51
2022/05/02 11:25:21;;;;;;;6.90;3.05;;;;;;;23.92;27.80;99802.22;4955328;28;20321;-50
2022/05/02 11:28:52;;;;;;;4.22;2.83;;;;;;;23.68;28.20;99805.03;4956706;28;21309;-50
2022/05/02 11:31:47;;;;;;;4.63;2.90;;;;;;;23.79;28.77;99801.53;4955409;28;20047;-51
2022/05/02 11:34:44;;;;;;;5.95;3.35;;;;;;;22.99;28.57;99796.19;4956883;28;20418;-50
2022/05/02 11:37:54;;;;;;;6.72;3.50;;;;;;;23.13;28.65;99795.13;4954612;28;20047;-50
2022/05/02 11:40:46;;;;;;;3.88;2.90;;;;;;;23.56;28.90;99801.50;4954142;28;20858;-52
2022/05/02 11:43:36;;;;;;;5.65;3.50;;;;;;;23.68;28.77;99790.78;4954206;28;20063;-50
2022/05/02 11:46:26;;;;;;;5.05;3.13;;;;;;;23.51;29.13;99792.13;4955684;28;20055;-50
2022/05/02 11:49:29;;;;;;;8.45;2.90;;;;;;;23.50;29.26;99791.28;4953594;28;20098;-50
2022/05/02 11:52:28;;;;;;;5.80;3.15;;;;;;;22.70;29.87;99793.03;4960094;28;20039;-50
2022/05/02 11:55:14;;;;;;;5.15;4.10;;;;;;;22.46;29.98;99788.59;4959587;28;20061;-50
2022/05/02 11:58:14;;;;;;;6.22;3.00;;;;;;;22.83;30.00;99786.66;4961304;28;20051;-50
2022/05/02 12:01:02;;;;;;;4.35;2.75;;;;;;;23.18;29.93;99784.94;4960181;28;20809;-50
2022/05/02 12:03:59;;;;;;;4.35;2.72;;;;;;;23.24;30.63;99788.00;4957411;28;20043;-50
2022/05/02 12:07:02;;;;;;;5.00;3.53;;;;;;;23.04;30.84;99783.31;4956861;28;20116;-50
2022/05/02 12:09:47;;;;;;;9.32;2.50;;;;;;;23.29;30.35;99780.44;4955619;28;20485;-50
2022/05/02 12:12:33;;;;;;;5.50;4.00;;;;;;;23.49;30.00;99780.69;4956204;28;20070;-50
2022/05/02 12:15:19;;;;;;;4.88;3.22;;;;;;;23.45;29.18;99779.25;4954837;28;20596;-51
2022/05/02 12:18:05;;;;;;;6.40;4.20;;;;;;;23.48;29.48;99779.00;4954087;28;20055;-50
2022/05/02 12:20:54;;;;;;;5.90;2.80;;;;;;;23.57;29.52;99772.94;4954848;28;20059;-51
2022/05/02 12:23:42;;;;;;;5.18;2.80;;;;;;;23.10;30.14;99766.81;4952791;28;20477;-51
2022/05/02 12:26:27;;;;;;;4.60;3.35;;;;;;;22.87;30.20;99764.06;4953834;28;20425;-52
2022/05/02 12:29:14;;;;;;;6.03;3.45;;;;;;;22.86;30.82;99765.06;4954491;28;20108;-51
2022/05/02 12:32:10;;;;;;;8.00;4.32;;;;;;;22.31;30.61;99763.88;4954574;28;20409;-50
2022/05/02 12:34:56;;;;;;;6.90;4.10;;;;;;;22.36;30.69;99756.41;4954417;28;20375;-51
2022/05/02 12:37:44;;;;;;;7.10;4.57;;;;;;;22.19;31.53;99762.13;4958938;28;20063;-50
2022/05/02 12:40:28;;;;;;;5.82;3.88;;;;;;;21.96;31.22;99755.78;4961148;28;20461;-50
2022/05/02 12:43:44;;;;;;;5.95;3.78;;;;;;;22.23;31.40;99755.63;4960684;28;20829;-51
2022/05/02 12:46:38;;;;;;;4.88;3.83;;;;;;;22.46;30.37;99751.22;4958236;28;20433;-50
2022/05/02 12:49:35;;;;;;;10.02;5.32;;;;;;;22.60;29.70;99750.19;4961124;28;20108;-50
2022/05/02 12:52:20;;;;;;;6.05;4.38;;;;;;;22.53;30.22;99751.63;4958824;28;20051;-51
2022/05/02 12:55:06;;;;;;;5.97;4.13;;;;;;;22.19;30.44;99750.59;4958404;28;20043;-50
2022/05/02 13:01:01;;;;;;;7.03;4.95;;;;;;;23.05;30.09;99744.97;4957585;28;20970;-50
2022/05/02 13:03:53;;;;;;;7.30;4.60;;;;;;;22.88;30.94;99746.25;4955158;28;20046;-50
2022/05/02 13:06:39;;;;;;;5.70;4.28;;;;;;;22.98;30.62;99738.41;4960139;28;20062;-51
2022/05/02 13:09:35;;;;;;;5.28;3.42;;;;;;;22.89;30.64;99741.75;4959795;28;20058;-50
2022/05/02 13:12:22;;;;;;;5.22;4.00;;;;;;;22.72;30.83;99729.72;4959504;28;20058;-51
2022/05/02 13:15:07;;;;;;;6.18;3.47;;;;;;;22.78;30.71;99727.44;4955659;28;20051;-50
2022/05/02 13:17:57;;;;;;;4.60;3.40;;;;;;;23.04;30.08;99733.44;4961081;28;20424;-50
2022/05/02 13:20:56;;;;;;;5.05;3.15;;;;;;;23.27;30.12;99728.13;4957907;28;20405;-50
2022/05/02 13:23:44;;;;;;;4.32;2.95;;;;;;;23.35;30.00;99722.16;4957292;28;20409;-51
2022/05/02 13:26:46;;;;;;;6.40;3.80;;;;;;;23.23;29.92;99718.63;4955639;28;20043;-51
2022/05/02 13:30:04;;;;;;;5.65;3.25;;;;;;;23.12;31.04;99705.28;4960182;28;20078;-50
2022/05/02 13:33:07;;;;;;;6.60;3.13;;;;;;;23.35;30.45;99704.31;4957739;28;20042;-51
2022/05/02 13:36:02;;;;;;;8.15;3.88;;;;;;;23.59;30.12;99706.81;4955120;28;20493;-51
2022/05/02 13:39:11;;;;;;;6.82;2.72;;;;;;;23.75;30.48;99711.81;4952293;28;20054;-51
2022/05/02 13:42:08;;;;;;;3.70;2.92;;;;;;;23.74;28.97;99712.78;4959078;28;20055;-50
2022/05/02 13:44:56;;;;;;;7.40;4.80;;;;;;;24.18;29.40;99708.28;4955849;28;20059;-51
2022/05/02 13:48:15;;;;;;;8.73;4.05;;;;;;;23.95;28.89;99700.34;4949859;28;20055;-52
2022/05/02 13:51:07;;;;;;;4.63;3.20;;;;;;;24.06;28.35;99698.63;4955213;28;20058;-51
2022/05/02 13:53:55;;;;;;;4.05;2.78;;;;;;;24.41;28.87;99691.19;4952406;28;21552;-51